createdAt,value
2018-12-03T00:00:25.863Z,10.80
2018-12-03T00:03:00.309Z,10.90
2018-12-03T00:05:28.765Z,10.90
2018-12-03T00:07:57.165Z,10.90
2018-12-03T00:10:25.640Z,10.90
2018-12-03T00:12:54.057Z,10.90
2018-12-03T00:15:22.748Z,11.00
2018-12-03T00:17:51.232Z,11.00
2018-12-03T00:20:19.685Z,11.00
2018-12-03T00:22:48.210Z,11.00
2018-12-03T00:25:16.655Z,11.00
2018-12-03T00:27:53.160Z,11.00
2018-12-03T00:30:21.742Z,10.90
2018-12-03T00:32:50.368Z,10.90
2018-12-03T00:35:18.841Z,10.90
2018-12-03T00:37:47.400Z,10.90
2018-12-03T00:40:15.930Z,10.90
2018-12-03T00:42:44.350Z,10.90
2018-12-03T00:45:12.794Z,10.90
2018-12-03T00:47:41.262Z,10.90
2018-12-03T00:50:09.882Z,10.90
2018-12-03T00:53:13.502Z,10.90
2018-12-03T00:55:42.207Z,10.90
2018-12-03T00:58:10.850Z,10.90
2018-12-03T01:00:39.547Z,10.90
2018-12-03T01:03:08.190Z,11.00
2018-12-03T01:05:36.861Z,11.00
2018-12-03T01:08:05.503Z,11.00
2018-12-03T01:10:34.198Z,11.00
2018-12-03T01:13:02.934Z,11.00
2018-12-03T01:15:31.657Z,11.00
2018-12-03T01:18:00.301Z,11.00
2018-12-03T01:20:28.973Z,11.00
2018-12-03T01:22:57.623Z,11.00
2018-12-03T01:25:26.287Z,11.00
2018-12-03T01:27:54.937Z,11.00
2018-12-03T01:30:23.605Z,11.00
2018-12-03T01:32:52.251Z,11.00
2018-12-03T01:35:21.000Z,11.10
2018-12-03T01:37:49.718Z,11.10
2018-12-03T01:40:18.394Z,11.10
2018-12-03T01:42:47.038Z,11.10
2018-12-03T01:45:15.706Z,11.20
2018-12-03T01:47:44.354Z,11.10
2018-12-03T01:50:13.000Z,11.20
2018-12-03T01:52:41.699Z,11.20
2018-12-03T01:55:10.432Z,11.20
2018-12-03T01:57:39.103Z,11.20
2018-12-03T02:00:08.185Z,11.20
2018-12-03T02:02:36.841Z,11.20
2018-12-03T02:05:05.881Z,11.20
2018-12-03T02:07:34.561Z,11.20
2018-12-03T02:10:03.207Z,11.10
2018-12-03T02:12:31.872Z,11.10
2018-12-03T02:15:01.968Z,11.10
2018-12-03T02:17:30.662Z,11.10
2018-12-03T02:19:59.324Z,11.10
2018-12-03T02:22:27.997Z,11.10
2018-12-03T02:24:56.625Z,11.00
2018-12-03T02:27:25.778Z,11.00
2018-12-03T02:29:54.469Z,11.00
2018-12-03T02:32:23.134Z,11.00
2018-12-03T02:34:51.784Z,11.00
2018-12-03T02:37:20.523Z,11.00
2018-12-03T02:39:49.159Z,11.00
2018-12-03T02:42:17.827Z,11.00
2018-12-03T02:44:46.479Z,11.00
2018-12-03T02:47:15.147Z,11.00
2018-12-03T02:49:43.842Z,11.00
2018-12-03T02:52:12.510Z,11.00
2018-12-03T02:54:41.177Z,11.00
2018-12-03T02:57:09.855Z,11.00
2018-12-03T02:59:38.626Z,10.90
2018-12-03T03:02:07.336Z,10.80
2018-12-03T03:04:35.973Z,10.80
2018-12-03T03:07:04.638Z,10.70
2018-12-03T03:09:33.279Z,10.70
2018-12-03T03:12:02.021Z,10.60
2018-12-03T03:14:30.659Z,10.60
2018-12-03T03:16:59.388Z,10.50
2018-12-03T03:19:28.040Z,10.50
2018-12-03T03:21:56.720Z,10.50
2018-12-03T03:24:25.356Z,10.50
2018-12-03T03:26:54.022Z,10.50
2018-12-03T03:29:22.681Z,10.40
2018-12-03T03:31:51.435Z,10.40
2018-12-03T03:34:20.158Z,10.40
2018-12-03T03:36:48.836Z,10.40
2018-12-03T03:39:17.550Z,10.40
2018-12-03T03:41:46.227Z,10.40
2018-12-03T03:44:14.946Z,10.40
2018-12-03T03:46:43.606Z,10.40
2018-12-03T03:49:12.253Z,10.40
2018-12-03T03:51:40.912Z,10.40
2018-12-03T03:54:09.559Z,10.50
2018-12-03T03:56:38.322Z,10.40
2018-12-03T03:59:06.970Z,10.50
2018-12-03T04:01:35.638Z,10.50
2018-12-03T04:04:04.886Z,10.50
2018-12-03T04:06:33.623Z,10.50
2018-12-03T04:09:02.364Z,10.50
2018-12-03T04:11:30.986Z,10.50
2018-12-03T04:13:59.666Z,10.60
2018-12-03T04:16:28.318Z,10.60
2018-12-03T04:18:57.058Z,10.60
2018-12-03T04:21:25.697Z,10.60
2018-12-03T04:23:54.380Z,10.60
2018-12-03T04:26:23.085Z,10.70
2018-12-03T04:28:51.760Z,10.70
2018-12-03T04:31:20.402Z,10.70
2018-12-03T04:33:49.091Z,10.70
2018-12-03T04:36:17.747Z,10.80
2018-12-03T04:38:46.420Z,10.80
2018-12-03T04:41:15.077Z,10.80
2018-12-03T04:43:43.818Z,10.90
2018-12-03T04:46:12.527Z,11.00
2018-12-03T04:48:41.195Z,11.00
2018-12-03T04:51:09.844Z,11.00
2018-12-03T04:53:38.592Z,11.00
2018-12-03T04:56:07.303Z,11.10
2018-12-03T04:58:35.965Z,11.10
2018-12-03T05:01:05.284Z,11.10
2018-12-03T05:03:33.958Z,11.10
2018-12-03T05:06:02.606Z,11.10
2018-12-03T05:08:31.284Z,11.20
2018-12-03T05:11:00.021Z,11.20
2018-12-03T05:13:28.746Z,11.20
2018-12-03T05:15:57.461Z,11.20
2018-12-03T05:18:26.135Z,11.20
2018-12-03T05:20:54.792Z,11.20
2018-12-03T05:23:23.526Z,11.20
2018-12-03T05:25:52.174Z,11.20
2018-12-03T05:28:20.842Z,11.30
2018-12-03T05:30:49.486Z,11.30
2018-12-03T05:33:18.157Z,11.30
2018-12-03T05:35:46.793Z,11.30
2018-12-03T05:38:16.669Z,11.30
2018-12-03T05:40:45.317Z,11.30
2018-12-03T05:43:15.365Z,11.30
2018-12-03T05:45:44.019Z,11.30
2018-12-03T05:48:12.773Z,11.30
2018-12-03T05:50:41.414Z,11.30
2018-12-03T05:53:10.093Z,11.30
2018-12-03T05:55:38.731Z,11.30
2018-12-03T05:58:07.399Z,11.30
2018-12-03T06:00:36.035Z,11.30
2018-12-03T06:03:04.822Z,11.30
2018-12-03T06:05:33.457Z,11.30
2018-12-03T06:08:02.171Z,11.30
2018-12-03T06:10:30.878Z,11.30
2018-12-03T06:12:59.552Z,11.40
2018-12-03T06:15:28.198Z,11.40
2018-12-03T06:17:56.878Z,11.40
2018-12-03T06:20:25.522Z,11.40
2018-12-03T06:22:54.185Z,11.40
2018-12-03T06:25:22.833Z,11.40
2018-12-03T06:27:51.506Z,11.30
2018-12-03T06:30:20.135Z,11.30
2018-12-03T06:32:48.804Z,11.30
2018-12-03T06:35:17.452Z,11.30
2018-12-03T06:37:46.193Z,11.30
2018-12-03T06:40:14.825Z,11.30
2018-12-03T06:42:43.507Z,11.30
2018-12-03T06:45:12.676Z,11.30
2018-12-03T06:47:41.328Z,11.30
2018-12-03T06:50:10.088Z,11.40
2018-12-03T06:52:38.723Z,11.40
2018-12-03T06:55:07.395Z,11.40
2018-12-03T06:57:36.050Z,11.40
2018-12-03T07:00:06.214Z,11.40
2018-12-03T07:02:34.870Z,11.40
2018-12-03T07:05:03.552Z,11.50
2018-12-03T07:07:32.202Z,11.50
2018-12-03T07:10:00.874Z,11.50
2018-12-03T07:12:29.525Z,11.50
2018-12-03T07:14:58.200Z,11.60
2018-12-03T07:17:26.846Z,11.60
2018-12-03T07:19:55.515Z,11.60
2018-12-03T07:22:24.168Z,11.60
2018-12-03T07:24:52.843Z,11.70
2018-12-03T07:27:21.478Z,11.70
2018-12-03T07:29:52.829Z,11.70
2018-12-03T07:32:21.940Z,11.70
2018-12-03T07:34:51.924Z,11.70
2018-12-03T07:37:20.554Z,11.80
2018-12-03T07:39:49.233Z,12.10
2018-12-03T07:42:18.067Z,12.10
2018-12-03T07:44:46.811Z,12.00
2018-12-03T07:47:15.459Z,12.00
2018-12-03T07:49:44.139Z,11.90
2018-12-03T07:52:12.792Z,11.90
2018-12-03T07:54:41.533Z,11.90
2018-12-03T07:57:10.191Z,12.00
2018-12-03T07:59:38.930Z,12.00
2018-12-03T08:02:07.572Z,12.00
2018-12-03T08:04:36.243Z,12.10
2018-12-03T08:07:04.959Z,12.10
2018-12-03T08:09:33.634Z,12.10
2018-12-03T08:12:02.272Z,12.10
2018-12-03T08:14:30.978Z,12.10
2018-12-03T08:16:59.629Z,12.20
2018-12-03T08:19:28.318Z,12.20
2018-12-03T08:21:56.961Z,12.20
2018-12-03T08:24:25.639Z,12.20
2018-12-03T08:26:54.285Z,12.20
2018-12-03T08:29:22.957Z,12.30
2018-12-03T08:31:51.610Z,12.30
2018-12-03T08:34:20.360Z,12.30
2018-12-03T08:36:49.019Z,12.40
2018-12-03T08:39:17.701Z,12.40
2018-12-03T08:41:46.370Z,12.40
2018-12-03T08:44:15.054Z,12.40
2018-12-03T08:46:43.722Z,12.40
2018-12-03T08:49:12.364Z,12.40
2018-12-03T08:51:41.033Z,12.40
2018-12-03T08:54:09.676Z,12.50
2018-12-03T08:56:39.013Z,12.50
2018-12-03T08:59:07.658Z,12.50
2018-12-03T09:01:36.356Z,12.50
2018-12-03T09:04:06.571Z,12.50
2018-12-03T09:06:35.278Z,12.60
2018-12-03T09:09:05.113Z,12.60
2018-12-03T09:11:33.781Z,12.80
2018-12-03T09:14:02.427Z,12.80
2018-12-03T09:16:31.101Z,12.90
2018-12-03T09:18:59.739Z,12.90
2018-12-03T09:21:28.421Z,12.90
2018-12-03T09:23:58.747Z,12.90
2018-12-03T09:26:27.427Z,12.90
2018-12-03T09:28:56.171Z,12.90
2018-12-03T09:31:24.835Z,12.90
2018-12-03T09:33:53.483Z,13.00
2018-12-03T09:36:22.231Z,13.00
2018-12-03T09:38:58.537Z,13.10
2018-12-03T09:41:27.211Z,13.10
2018-12-03T09:43:55.843Z,13.10
2018-12-03T09:46:24.505Z,13.10
2018-12-03T09:48:55.017Z,13.10
2018-12-03T09:51:25.261Z,13.10
2018-12-03T09:53:53.903Z,13.20
2018-12-03T09:56:26.082Z,13.20
2018-12-03T09:58:54.734Z,13.30
2018-12-03T10:01:23.400Z,13.30
2018-12-03T10:03:52.043Z,13.40
2018-12-03T10:06:20.733Z,13.50
2018-12-03T10:08:49.385Z,13.60
2018-12-03T10:11:18.059Z,13.60
2018-12-03T10:13:46.705Z,13.70
2018-12-03T10:16:15.405Z,13.70
2018-12-03T10:18:46.679Z,13.80
2018-12-03T10:21:15.359Z,13.80
2018-12-03T10:23:44.007Z,13.90
2018-12-03T10:26:12.786Z,13.90
2018-12-03T10:28:41.490Z,14.00
2018-12-03T10:31:11.757Z,14.10
2018-12-03T10:33:40.487Z,14.20
2018-12-03T10:36:09.199Z,14.30
2018-12-03T10:38:37.918Z,14.40
2018-12-03T10:41:06.814Z,14.40
2018-12-03T10:43:35.454Z,14.50
2018-12-03T10:46:04.158Z,14.70
2018-12-03T10:48:32.811Z,14.70
2018-12-03T10:51:01.491Z,14.60
2018-12-03T10:53:30.199Z,14.70
2018-12-03T10:55:58.865Z,14.60
2018-12-03T10:58:29.274Z,14.60
2018-12-03T11:01:15.601Z,14.60
2018-12-03T11:03:51.776Z,14.60
2018-12-03T11:06:20.471Z,14.70
2018-12-03T11:08:49.181Z,14.60
2018-12-03T11:11:17.870Z,14.50
2018-12-03T11:13:46.578Z,14.50
2018-12-03T11:16:19.418Z,14.40
2018-12-03T11:18:48.161Z,14.50
2018-12-03T11:21:16.962Z,14.40
2018-12-03T11:23:45.599Z,14.40
2018-12-03T11:26:14.263Z,14.40
2018-12-03T11:28:42.905Z,14.40
2018-12-03T11:31:12.371Z,14.50
2018-12-03T11:33:41.157Z,14.60
2018-12-03T11:36:09.837Z,14.60
2018-12-03T11:38:38.481Z,14.70
2018-12-03T11:41:07.145Z,14.80
2018-12-03T11:43:35.787Z,15.00
2018-12-03T11:46:04.460Z,15.20
2018-12-03T11:48:33.099Z,15.30
2018-12-03T11:51:01.772Z,15.40
2018-12-03T11:53:30.414Z,15.30
2018-12-03T11:55:59.113Z,15.30
2018-12-03T11:58:27.750Z,15.20
2018-12-03T12:00:56.419Z,15.30
2018-12-03T12:03:25.142Z,15.20
2018-12-03T12:05:53.812Z,15.10
2018-12-03T12:08:22.534Z,15.00
2018-12-03T12:10:51.170Z,14.90
2018-12-03T12:13:19.842Z,14.90
2018-12-03T12:15:48.504Z,14.80
2018-12-03T12:18:17.258Z,14.80
2018-12-03T12:20:45.899Z,14.80
2018-12-03T12:23:14.607Z,14.80
2018-12-03T12:25:43.248Z,14.80
2018-12-03T12:28:11.927Z,14.80
2018-12-03T12:30:40.631Z,14.80
2018-12-03T12:33:09.306Z,14.80
2018-12-03T12:35:37.951Z,14.90
2018-12-03T12:38:06.629Z,14.90
2018-12-03T12:40:35.349Z,14.90
2018-12-03T12:43:04.026Z,14.90
2018-12-03T12:45:32.658Z,14.90
2018-12-03T12:48:01.336Z,14.90
2018-12-03T12:50:29.979Z,14.90
2018-12-03T12:52:58.655Z,14.90
2018-12-03T12:55:27.369Z,14.80
2018-12-03T12:57:56.034Z,14.80
2018-12-03T13:00:24.670Z,14.70
2018-12-03T13:02:53.500Z,14.70
2018-12-03T13:05:22.137Z,14.60
2018-12-03T13:07:50.838Z,14.60
2018-12-03T13:10:19.483Z,14.60
2018-12-03T13:12:48.149Z,14.60
2018-12-03T13:15:16.781Z,14.50
2018-12-03T13:17:45.467Z,14.50
2018-12-03T13:20:14.101Z,14.50
2018-12-03T13:22:42.764Z,14.40
2018-12-03T13:25:11.470Z,14.40
2018-12-03T13:27:40.158Z,14.30
2018-12-03T13:30:09.002Z,14.30
2018-12-03T13:32:37.666Z,14.30
2018-12-03T13:35:06.509Z,14.20
2018-12-03T13:37:35.186Z,14.20
2018-12-03T13:40:03.820Z,14.20
2018-12-03T13:42:32.481Z,14.20
2018-12-03T13:45:01.197Z,14.20
2018-12-03T13:47:29.858Z,14.20
2018-12-03T13:49:58.489Z,14.20
2018-12-03T13:52:27.157Z,14.20
2018-12-03T13:54:55.794Z,14.20
2018-12-03T13:57:24.534Z,14.20
2018-12-03T13:59:53.178Z,14.20
2018-12-03T14:02:21.854Z,14.20
2018-12-03T14:04:50.503Z,14.20
2018-12-03T14:07:19.142Z,14.20
2018-12-03T14:09:47.804Z,14.20
2018-12-03T14:12:16.478Z,14.20
2018-12-03T14:14:45.203Z,14.20
2018-12-03T14:17:13.849Z,14.20
2018-12-03T14:19:42.642Z,14.10
2018-12-03T14:22:11.295Z,14.10
2018-12-03T14:24:39.955Z,14.10
2018-12-03T14:27:08.600Z,14.10
2018-12-03T14:29:37.270Z,14.10
2018-12-03T14:32:05.918Z,14.10
2018-12-03T14:34:34.581Z,14.10
2018-12-03T14:37:03.321Z,14.00
2018-12-03T14:39:31.998Z,14.00
2018-12-03T14:42:00.734Z,14.00
2018-12-03T14:44:29.422Z,14.00
2018-12-03T14:46:58.065Z,13.90
2018-12-03T14:49:26.752Z,13.90
2018-12-03T14:51:55.395Z,13.80
2018-12-03T14:54:24.082Z,13.80
2018-12-03T14:56:52.746Z,13.80
2018-12-03T14:59:21.463Z,13.80
2018-12-03T15:01:50.124Z,13.80
2018-12-03T15:04:18.794Z,13.80
2018-12-03T15:06:47.458Z,13.80
2018-12-03T15:09:16.102Z,13.70
2018-12-03T15:11:44.772Z,13.70
2018-12-03T15:14:13.428Z,13.70
2018-12-03T15:16:42.170Z,13.70
2018-12-03T15:19:11.736Z,13.60
2018-12-03T15:21:40.557Z,13.60
2018-12-03T15:24:13.375Z,13.60
2018-12-03T15:26:39.629Z,13.60
2018-12-03T15:29:08.361Z,13.60
2018-12-03T15:31:37.050Z,13.70
2018-12-03T15:34:05.697Z,13.70
2018-12-03T15:36:34.366Z,13.70
2018-12-03T15:39:04.573Z,13.70
2018-12-03T15:41:33.245Z,13.70
2018-12-03T15:44:01.877Z,13.60
2018-12-03T15:46:30.545Z,13.60
2018-12-03T15:48:59.185Z,13.70
2018-12-03T15:51:27.843Z,13.70
2018-12-03T15:53:56.484Z,13.70
2018-12-03T15:56:25.147Z,13.70
2018-12-03T15:58:53.791Z,13.70
2018-12-03T16:01:22.464Z,13.80
2018-12-03T16:03:51.180Z,13.70
2018-12-03T16:06:19.859Z,13.70
2018-12-03T16:08:48.489Z,13.60
2018-12-03T16:11:17.158Z,13.60
2018-12-03T16:13:45.805Z,13.60
2018-12-03T16:16:14.482Z,13.60
2018-12-03T16:18:43.129Z,13.50
2018-12-03T16:21:11.873Z,13.50
2018-12-03T16:23:40.515Z,13.50
2018-12-03T16:26:09.139Z,13.50
2018-12-03T16:28:37.813Z,13.50
2018-12-03T16:31:06.441Z,13.50
2018-12-03T16:33:35.123Z,13.50
2018-12-03T16:36:03.756Z,13.40
2018-12-03T16:38:32.435Z,13.40
2018-12-03T16:41:01.074Z,13.40
2018-12-03T16:43:29.743Z,13.40
2018-12-03T16:45:58.386Z,13.40
2018-12-03T16:48:27.050Z,13.40
2018-12-03T16:50:55.706Z,13.40
2018-12-03T16:53:24.394Z,13.40
2018-12-03T16:55:53.104Z,13.30
2018-12-03T16:58:21.766Z,13.30
2018-12-03T17:00:50.429Z,13.40
2018-12-03T17:03:19.166Z,13.30
2018-12-03T17:05:47.812Z,13.30
2018-12-03T17:08:16.481Z,13.30
2018-12-03T17:10:45.325Z,13.30
2018-12-03T17:13:13.989Z,13.30
2018-12-03T17:15:42.637Z,13.30
2018-12-03T17:18:11.303Z,13.40
2018-12-03T17:20:41.112Z,13.40
2018-12-03T17:23:10.079Z,13.40
2018-12-03T17:25:38.762Z,13.40
2018-12-03T17:28:07.430Z,13.40
2018-12-03T17:30:36.054Z,13.40
2018-12-03T17:33:04.730Z,13.40
2018-12-03T17:35:33.374Z,13.40
2018-12-03T17:38:02.057Z,13.40
2018-12-03T17:40:30.754Z,13.40
2018-12-03T17:42:59.425Z,13.40
2018-12-03T17:45:28.071Z,12.60
2018-12-03T17:47:56.730Z,13.40
2018-12-03T17:50:25.369Z,13.40
2018-12-03T17:52:54.032Z,13.40
2018-12-03T17:55:22.669Z,13.40
2018-12-03T17:57:51.310Z,13.40
2018-12-03T18:00:19.989Z,13.40
2018-12-03T18:02:48.631Z,13.40
2018-12-03T18:05:17.293Z,13.30
2018-12-03T18:07:45.929Z,13.30
2018-12-03T18:10:15.518Z,13.30
2018-12-03T18:12:44.305Z,13.30
2018-12-03T18:15:12.965Z,13.30
2018-12-03T18:17:41.616Z,13.20
2018-12-03T18:20:10.291Z,13.20
2018-12-03T18:22:38.937Z,13.10
2018-12-03T18:25:07.679Z,13.00
2018-12-03T18:27:36.325Z,13.00
2018-12-03T18:30:05.599Z,13.00
2018-12-03T18:32:34.253Z,12.90
2018-12-03T18:35:02.924Z,13.30
2018-12-03T18:37:31.644Z,12.90
2018-12-03T18:40:00.424Z,12.90
2018-12-03T18:42:29.066Z,13.00
2018-12-03T18:44:57.744Z,13.00
2018-12-03T18:47:26.386Z,13.10
2018-12-03T18:49:55.072Z,13.20
2018-12-03T18:52:23.903Z,13.20
2018-12-03T18:54:52.578Z,13.30
2018-12-03T18:57:21.234Z,13.30
2018-12-03T18:59:49.916Z,13.40
2018-12-03T19:02:18.561Z,13.40
2018-12-03T19:04:47.302Z,13.40
2018-12-03T19:07:15.959Z,13.50
2018-12-03T19:09:44.733Z,13.50
2018-12-03T19:12:13.373Z,13.50
2018-12-03T19:14:42.135Z,13.50
2018-12-03T19:17:10.788Z,13.50
2018-12-03T19:19:39.551Z,13.40
2018-12-03T19:22:08.198Z,13.40
2018-12-03T19:24:36.912Z,13.40
2018-12-03T19:27:05.585Z,13.40
2018-12-03T19:29:38.845Z,13.40
2018-12-03T19:32:04.718Z,13.40
2018-12-03T19:34:33.392Z,13.40
2018-12-03T19:37:02.041Z,13.40
2018-12-03T19:39:30.741Z,13.40
2018-12-03T19:41:59.428Z,13.40
2018-12-03T19:44:28.076Z,13.40
2018-12-03T19:46:56.743Z,13.40
2018-12-03T19:49:25.459Z,13.40
2018-12-03T19:51:54.329Z,13.50
2018-12-03T19:54:22.991Z,13.50
2018-12-03T19:56:51.659Z,13.50
2018-12-03T19:59:20.374Z,13.50
2018-12-03T20:01:49.051Z,13.60
2018-12-03T20:04:38.581Z,13.70
2018-12-03T20:07:07.249Z,13.70
2018-12-03T20:09:35.887Z,13.80
2018-12-03T20:12:04.553Z,13.80
2018-12-03T20:14:33.197Z,13.90
2018-12-03T20:17:01.939Z,14.00
2018-12-03T20:19:30.587Z,13.90
2018-12-03T20:21:59.454Z,13.90
2018-12-03T20:24:28.095Z,13.80
2018-12-03T20:26:57.571Z,13.70
2018-12-03T20:29:26.210Z,13.60
2018-12-03T20:32:04.013Z,13.40
2018-12-03T20:34:32.665Z,13.20
2018-12-03T20:37:04.601Z,12.90
2018-12-03T20:39:36.369Z,12.70
2018-12-03T20:42:05.207Z,12.50
2018-12-03T20:44:34.054Z,12.30
2018-12-03T20:47:02.838Z,12.20
2018-12-03T20:49:31.809Z,12.00
2018-12-03T20:52:01.724Z,11.90
2018-12-03T20:54:30.435Z,11.70
2018-12-03T20:56:59.086Z,11.70
2018-12-03T20:59:27.785Z,11.60
2018-12-03T21:01:56.427Z,11.50
2018-12-03T21:04:25.104Z,11.50
2018-12-03T21:06:53.755Z,11.40
2018-12-03T21:09:22.498Z,11.40
2018-12-03T21:11:51.155Z,11.40
2018-12-03T21:14:20.198Z,11.40
2018-12-03T21:16:49.058Z,11.40
2018-12-03T21:19:17.722Z,11.50
2018-12-03T21:21:46.354Z,11.50
2018-12-03T21:24:15.110Z,11.50
2018-12-03T21:26:43.750Z,11.60
2018-12-03T21:29:12.430Z,11.60
2018-12-03T21:31:41.070Z,11.60
2018-12-03T21:34:09.747Z,11.70
2018-12-03T21:36:38.378Z,11.70
2018-12-03T21:39:07.143Z,11.70
2018-12-03T21:41:35.860Z,11.70
2018-12-03T21:44:04.525Z,11.80
2018-12-03T21:46:33.163Z,11.80
2018-12-03T21:49:01.832Z,11.80
2018-12-03T21:51:30.473Z,11.90
2018-12-03T21:53:59.139Z,11.80
2018-12-03T21:56:27.786Z,11.80
2018-12-03T21:58:56.457Z,11.80
2018-12-03T22:01:25.167Z,11.70
2018-12-03T22:03:53.829Z,11.70
2018-12-03T22:06:22.484Z,11.70
2018-12-03T22:08:51.202Z,11.60
2018-12-03T22:11:19.842Z,11.50
2018-12-03T22:13:48.482Z,11.40
2018-12-03T22:16:17.154Z,11.30
2018-12-03T22:18:45.794Z,11.20
2018-12-03T22:21:14.460Z,11.20
2018-12-03T22:23:43.105Z,11.20
2018-12-03T22:26:11.869Z,11.20
2018-12-03T22:28:40.514Z,11.10
2018-12-03T22:31:09.303Z,11.10
2018-12-03T22:33:38.046Z,11.10
2018-12-03T22:36:06.723Z,11.10
2018-12-03T22:38:35.354Z,11.10
2018-12-03T22:41:04.059Z,11.10
2018-12-03T22:43:33.050Z,11.10
2018-12-03T22:46:01.806Z,11.10
2018-12-03T22:48:30.603Z,11.10
2018-12-03T22:50:59.267Z,11.20
2018-12-03T22:53:27.918Z,11.20
2018-12-03T22:55:56.674Z,11.20
2018-12-03T22:58:25.321Z,11.20
2018-12-03T23:00:56.683Z,11.20
2018-12-03T23:03:25.315Z,11.20
2018-12-03T23:05:53.983Z,11.20
2018-12-03T23:08:22.624Z,11.20
2018-12-03T23:10:51.299Z,11.20
2018-12-03T23:13:19.949Z,11.20
2018-12-03T23:15:48.629Z,11.20
2018-12-03T23:18:17.349Z,11.20
2018-12-03T23:20:46.100Z,11.20
2018-12-03T23:23:14.735Z,11.20
2018-12-03T23:25:43.435Z,11.30
2018-12-03T23:28:12.090Z,11.20
2018-12-03T23:30:40.785Z,11.30
2018-12-03T23:33:09.425Z,11.30
2018-12-03T23:35:38.101Z,11.30
2018-12-03T23:38:06.769Z,11.20
2018-12-03T23:40:35.463Z,11.20
2018-12-03T23:43:04.187Z,11.20
2018-12-03T23:45:32.883Z,11.20
2018-12-03T23:48:01.515Z,11.20
2018-12-03T23:50:30.195Z,11.20
2018-12-03T23:52:58.866Z,11.10
2018-12-03T23:55:27.586Z,11.10
2018-12-03T23:57:56.230Z,11.10
